Time;durP1;ratioP1;P1;durP2;ratioP2;P2;SDS_P1;SDS_P2;PMS_P1;PMS_P2;Temp;Humidity;BMP_temperature;BMP_pressure;BME280_temperature;BME280_humidity;BME280_pressure;Samples;Min_cycle;Max_cycle;Signal;HPM_P1;HPM_P2
2022/05/10 00:02:36;;;;;;;8.90;8.10;;;15.00;99.90;;;;;;6259529;28;20470;-63
2022/05/10 00:05:42;;;;;;;9.50;8.60;;;14.90;99.90;;;;;;6261416;28;20467;-64
2022/05/10 00:08:45;;;;;;;9.40;7.97;;;14.90;99.90;;;;;;6261233;28;20490;-63
2022/05/10 00:11:48;;;;;;;10.20;9.30;;;14.90;99.90;;;;;;6275529;28;20466;-65
2022/05/10 00:14:53;;;;;;;8.63;7.90;;;14.90;99.90;;;;;;6279748;28;20470;-63
2022/05/10 00:17:56;;;;;;;9.33;8.53;;;14.80;99.90;;;;;;6279511;28;20470;-63
2022/05/10 00:20:59;;;;;;;9.27;8.37;;;14.70;99.90;;;;;;6280439;28;20477;-64
2022/05/10 00:24:02;;;;;;;10.10;8.83;;;14.70;99.90;;;;;;6279718;28;20540;-64
2022/05/10 00:27:06;;;;;;;10.00;9.03;;;14.70;99.90;;;;;;6279977;28;20478;-63
2022/05/10 00:30:12;;;;;;;8.90;8.00;;;14.60;99.90;;;;;;6279022;28;20474;-63
2022/05/10 00:33:19;;;;;;;8.93;8.13;;;14.60;99.90;;;;;;6279419;28;20467;-64
2022/05/10 00:36:24;;;;;;;10.40;9.43;;;14.60;99.90;;;;;;6274777;28;20478;-63
2022/05/10 00:39:27;;;;;;;8.97;8.07;;;14.50;99.90;;;;;;6279487;28;20470;-63
2022/05/10 00:42:36;;;;;;;8.90;8.20;;;14.50;99.90;;;;;;6279388;28;20470;-62
2022/05/10 00:45:49;;;;;;;10.00;9.10;;;14.40;99.90;;;;;;6279203;28;20471;-62
2022/05/10 00:48:58;;;;;;;11.23;9.53;;;14.40;99.90;;;;;;6278789;28;20484;-62
2022/05/10 00:52:07;;;;;;;10.23;8.80;;;14.30;99.90;;;;;;6279133;28;20986;-64
2022/05/10 00:55:16;;;;;;;10.70;9.73;;;14.30;99.90;;;;;;6278967;28;20477;-64
2022/05/10 00:58:26;;;;;;;10.80;9.60;;;14.40;99.90;;;;;;6279364;28;20450;-64
2022/05/10 01:01:33;;;;;;;10.10;9.10;;;14.30;99.90;;;;;;6278744;28;20446;-64
2022/05/10 01:04:43;;;;;;;10.47;9.47;;;14.30;99.90;;;;;;6278860;28;20489;-64
2022/05/10 01:07:52;;;;;;;10.47;9.47;;;14.30;99.90;;;;;;6278376;28;20760;-63
2022/05/10 01:11:01;;;;;;;10.70;9.80;;;14.30;99.90;;;;;;6278945;28;20473;-64
2022/05/10 01:14:11;;;;;;;11.00;10.00;;;14.30;99.90;;;;;;6280773;28;20477;-64
2022/05/10 01:17:16;;;;;;;10.37;9.47;;;14.30;99.90;;;;;;6278914;28;20500;-64
2022/05/10 01:20:23;;;;;;;11.33;9.80;;;14.30;99.90;;;;;;6279441;28;20481;-64
2022/05/10 01:23:51;;;;;;;9.70;8.80;;;14.30;99.90;;;;;;6277921;28;20481;-64
2022/05/10 01:27:10;;;;;;;9.47;8.60;;;14.20;99.90;;;;;;6278319;28;20482;-63
2022/05/10 01:30:17;;;;;;;9.73;8.83;;;14.20;99.90;;;;;;6278613;28;20477;-64
2022/05/10 01:33:31;;;;;;;10.30;9.00;;;14.20;99.90;;;;;;6278457;28;20473;-64
2022/05/10 01:36:41;;;;;;;9.13;8.33;;;14.20;99.90;;;;;;6278400;28;20482;-63
2022/05/10 01:39:52;;;;;;;9.40;8.50;;;14.20;99.90;;;;;;6278462;28;20472;-63
2022/05/10 01:43:02;;;;;;;9.30;8.50;;;14.10;99.90;;;;;;6278112;28;20508;-63
2022/05/10 01:46:13;;;;;;;10.10;9.20;;;14.10;99.90;;;;;;6277812;28;20489;-64
2022/05/10 01:49:27;;;;;;;10.93;9.03;;;14.10;99.90;;;;;;6277583;28;20481;-64
2022/05/10 01:52:35;;;;;;;11.10;8.37;;;14.10;99.90;;;;;;6277759;28;20453;-64
2022/05/10 01:55:40;;;;;;;9.30;8.50;;;14.10;99.90;;;;;;6277470;28;20469;-63
2022/05/10 01:58:46;;;;;;;10.50;9.20;;;14.10;99.90;;;;;;6277476;28;20473;-63
2022/05/10 02:01:51;;;;;;;10.10;9.13;;;14.00;99.90;;;;;;6277610;28;20474;-64
2022/05/10 02:04:59;;;;;;;10.60;9.80;;;14.00;99.90;;;;;;6277778;28;20974;-64
2022/05/10 02:08:08;;;;;;;10.37;7.80;;;14.00;99.90;;;;;;6277350;28;20823;-64
2022/05/10 02:11:13;;;;;;;9.70;8.70;;;13.90;99.90;;;;;;6277807;28;20500;-63
2022/05/10 02:14:24;;;;;;;10.17;9.27;;;13.90;99.90;;;;;;6278105;28;20815;-63
2022/05/10 02:17:35;;;;;;;10.37;9.37;;;13.90;99.90;;;;;;6277002;28;20494;-63
2022/05/10 02:20:47;;;;;;;9.33;8.53;;;13.90;99.90;;;;;;6277502;28;20471;-63
2022/05/10 02:23:56;;;;;;;9.90;9.00;;;13.80;99.90;;;;;;6277068;28;20474;-63
2022/05/10 02:27:03;;;;;;;10.50;9.57;;;13.80;99.90;;;;;;6277027;28;20478;-64
2022/05/10 02:30:09;;;;;;;9.63;8.83;;;13.80;99.90;;;;;;6276911;28;20485;-63
2022/05/10 02:33:16;;;;;;;10.80;8.90;;;13.80;99.90;;;;;;6277426;28;20555;-64
2022/05/10 02:36:20;;;;;;;8.80;8.00;;;13.70;99.90;;;;;;6275706;28;20955;-65
2022/05/10 02:39:23;;;;;;;12.03;10.30;;;13.70;99.90;;;;;;6276902;28;20476;-64
2022/05/10 02:42:27;;;;;;;9.87;8.97;;;13.60;99.90;;;;;;6276674;28;20469;-64
2022/05/10 02:45:31;;;;;;;10.33;9.37;;;13.60;99.90;;;;;;6267462;28;20463;-64
2022/05/10 02:48:37;;;;;;;9.40;8.50;;;13.60;99.90;;;;;;6275936;28;20911;-63
2022/05/10 02:51:40;;;;;;;9.83;8.93;;;13.60;99.90;;;;;;6276264;28;20482;-63
2022/05/10 02:54:43;;;;;;;8.73;8.03;;;13.60;99.90;;;;;;6275978;28;20477;-64
2022/05/10 02:57:49;;;;;;;11.10;9.63;;;13.50;99.90;;;;;;6276130;28;20524;-63
2022/05/10 03:00:58;;;;;;;9.97;9.07;;;13.40;99.90;;;;;;6275990;28;20462;-64
2022/05/10 03:04:05;;;;;;;9.60;8.80;;;13.40;99.90;;;;;;6276143;28;20470;-64
2022/05/10 03:07:10;;;;;;;9.43;8.73;;;13.40;99.90;;;;;;6275684;28;20555;-64
2022/05/10 03:10:13;;;;;;;10.57;9.60;;;13.40;99.90;;;;;;6275835;28;20478;-64
2022/05/10 03:13:17;;;;;;;10.77;9.50;;;13.40;99.90;;;;;;6275827;28;20973;-63
2022/05/10 03:16:21;;;;;;;11.30;8.70;;;13.40;99.90;;;;;;6275690;28;20454;-63
2022/05/10 03:19:26;;;;;;;9.97;8.97;;;13.40;99.90;;;;;;6275406;28;20936;-64
2022/05/10 03:22:29;;;;;;;9.80;8.70;;;13.40;99.90;;;;;;6275860;28;20442;-63
2022/05/10 03:25:32;;;;;;;10.10;9.20;;;13.30;99.90;;;;;;6275516;28;20434;-63
2022/05/10 03:28:36;;;;;;;10.57;9.67;;;13.20;99.90;;;;;;6275311;28;20469;-63
2022/05/10 03:31:39;;;;;;;10.13;9.03;;;13.20;99.90;;;;;;6275483;28;20458;-63
2022/05/10 03:34:57;;;;;;;11.37;10.30;;;13.20;99.90;;;;;;6275499;28;20922;-64
2022/05/10 03:38:01;;;;;;;9.20;8.40;;;13.20;99.90;;;;;;6275810;28;20474;-63
2022/05/10 03:41:04;;;;;;;9.83;9.03;;;13.10;99.90;;;;;;6276021;28;20790;-63
2022/05/10 03:44:07;;;;;;;9.33;8.50;;;13.10;99.90;;;;;;6275747;28;20477;-63
2022/05/10 03:47:11;;;;;;;10.33;9.33;;;13.10;99.90;;;;;;6266445;28;20485;-64
2022/05/10 03:50:17;;;;;;;9.20;8.40;;;13.10;99.90;;;;;;6275059;28;20486;-64
2022/05/10 03:53:20;;;;;;;9.33;8.43;;;13.20;99.90;;;;;;6274763;28;20470;-64
2022/05/10 03:56:23;;;;;;;10.00;9.10;;;13.20;99.90;;;;;;6275081;28;20488;-68
2022/05/10 03:59:27;;;;;;;9.93;9.07;;;13.20;99.90;;;;;;6274990;28;20470;-64
2022/05/10 04:02:30;;;;;;;9.03;8.23;;;13.20;99.90;;;;;;6275099;28;20471;-64
2022/05/10 04:05:34;;;;;;;10.03;9.03;;;13.20;99.90;;;;;;6275154;28;20466;-64
2022/05/10 04:08:37;;;;;;;9.07;8.27;;;13.20;99.90;;;;;;6274796;28;20470;-63
2022/05/10 04:11:41;;;;;;;9.10;8.30;;;13.30;99.90;;;;;;6275227;28;20462;-63
2022/05/10 04:14:44;;;;;;;8.90;7.87;;;13.30;99.90;;;;;;6277464;28;20466;-63
2022/05/10 04:17:47;;;;;;;10.53;9.60;;;13.40;99.90;;;;;;6278888;28;20488;-63
2022/05/10 04:20:52;;;;;;;9.30;8.50;;;13.40;99.90;;;;;;6282587;28;20463;-63
2022/05/10 04:23:55;;;;;;;9.10;8.30;;;13.40;99.90;;;;;;6276677;28;20470;-63
2022/05/10 04:26:58;;;;;;;10.90;9.63;;;13.60;99.90;;;;;;6274795;28;20470;-63
2022/05/10 04:30:01;;;;;;;10.17;9.17;;;13.70;99.90;;;;;;6274301;28;20486;-63
2022/05/10 04:33:04;;;;;;;9.93;8.87;;;13.80;99.90;;;;;;6274515;28;20485;-63
2022/05/10 04:36:09;;;;;;;9.80;8.80;;;13.90;99.90;;;;;;6274419;28;20479;-63
2022/05/10 04:39:18;;;;;;;9.13;8.33;;;14.00;99.90;;;;;;6274720;28;20474;-63
2022/05/10 04:42:20;;;;;;;10.00;9.07;;;14.10;99.90;;;;;;6274609;28;20477;-64
2022/05/10 04:45:23;;;;;;;10.70;9.70;;;14.20;99.90;;;;;;6274098;28;20971;-63
2022/05/10 04:48:27;;;;;;;10.40;9.40;;;14.40;99.90;;;;;;6274466;28;20470;-64
2022/05/10 04:51:32;;;;;;;11.20;9.70;;;14.50;99.90;;;;;;6269481;28;20478;-63
2022/05/10 04:54:35;;;;;;;10.87;9.67;;;14.60;99.90;;;;;;6274222;28;20474;-64
2022/05/10 04:57:41;;;;;;;12.90;9.33;;;14.70;99.90;;;;;;6274414;28;20490;-64
2022/05/10 05:00:44;;;;;;;9.33;8.40;;;14.80;99.90;;;;;;6278555;28;20946;-64
2022/05/10 05:03:49;;;;;;;9.13;8.33;;;14.90;99.90;;;;;;6279431;28;20493;-64
2022/05/10 05:06:54;;;;;;;9.53;8.70;;;15.10;99.90;;;;;;6278889;28;20565;-64
2022/05/10 05:09:57;;;;;;;10.10;9.13;;;15.20;99.90;;;;;;6278975;28;20985;-64
2022/05/10 05:13:00;;;;;;;10.80;9.57;;;15.30;99.90;;;;;;6278685;28;20992;-64
2022/05/10 05:16:03;;;;;;;14.87;9.80;;;15.50;99.90;;;;;;6278604;28;20858;-64
2022/05/10 05:19:06;;;;;;;13.87;9.33;;;15.70;99.90;;;;;;6258332;28;20477;-64
2022/05/10 05:22:12;;;;;;;9.33;8.30;;;15.90;99.90;;;;;;6253704;28;20471;-64
2022/05/10 05:25:16;;;;;;;10.93;9.60;;;16.10;99.90;;;;;;6253503;28;20469;-64
2022/05/10 05:28:19;;;;;;;12.97;10.33;;;16.30;99.90;;;;;;6253716;28;20469;-63
2022/05/10 05:31:22;;;;;;;12.77;11.13;;;16.40;99.90;;;;;;6253835;28;20483;-63
2022/05/10 05:34:25;;;;;;;10.83;9.87;;;16.60;99.90;;;;;;6260491;28;20446;-63
2022/05/10 05:37:37;;;;;;;10.90;9.67;;;16.80;99.90;;;;;;6272684;28;20458;-63
2022/05/10 05:40:41;;;;;;;10.53;9.53;;;17.00;99.90;;;;;;6268207;28;20537;-63
2022/05/10 05:43:44;;;;;;;12.13;11.03;;;17.20;99.90;;;;;;6271893;28;20474;-63
2022/05/10 05:46:47;;;;;;;11.27;9.60;;;17.60;99.90;;;;;;6256215;28;20486;-63
2022/05/10 05:49:50;;;;;;;9.70;8.70;;;18.00;99.90;;;;;;6261159;28;20473;-64
2022/05/10 05:52:55;;;;;;;10.30;9.30;;;18.60;99.40;;;;;;6273457;28;20478;-64
2022/05/10 05:56:02;;;;;;;10.60;9.57;;;19.20;98.10;;;;;;6245609;28;20962;-64
2022/05/10 05:59:05;;;;;;;10.90;10.00;;;19.40;97.00;;;;;;6252641;28;20946;-64
2022/05/10 06:02:11;;;;;;;10.77;9.70;;;19.80;96.50;;;;;;6252660;28;20471;-64
2022/05/10 06:05:15;;;;;;;9.50;8.60;;;20.20;95.40;;;;;;6252631;28;20220;-64
2022/05/10 06:08:19;;;;;;;11.00;9.10;;;20.70;94.80;;;;;;6252278;28;20246;-64
2022/05/10 06:11:23;;;;;;;11.30;10.20;;;21.30;93.60;;;;;;6252357;28;20236;-64
2022/05/10 06:14:26;;;;;;;10.50;9.57;;;21.80;92.90;;;;;;6252302;28;20567;-64
2022/05/10 06:17:29;;;;;;;11.23;9.47;;;22.40;91.30;;;;;;6251931;28;20243;-65
2022/05/10 06:20:32;;;;;;;10.50;8.87;;;23.10;90.30;;;;;;6252301;28;20224;-64
2022/05/10 06:23:37;;;;;;;11.47;8.90;;;23.30;87.80;;;;;;6251911;28;20698;-64
2022/05/10 06:26:40;;;;;;;10.93;9.87;;;23.80;85.70;;;;;;6252366;28;20248;-64
2022/05/10 06:29:44;;;;;;;10.00;9.10;;;24.30;83.20;;;;;;6252027;28;20243;-64
2022/05/10 06:32:47;;;;;;;10.43;9.40;;;24.90;80.20;;;;;;6251708;28;20236;-64
2022/05/10 06:35:50;;;;;;;9.67;8.90;;;25.70;76.60;;;;;;6251910;28;20238;-64
2022/05/10 06:38:55;;;;;;;9.80;8.80;;;26.40;72.60;;;;;;6251908;28;20314;-64
2022/05/10 06:41:58;;;;;;;8.90;8.10;;;26.80;70.20;;;;;;6251596;28;20568;-64
2022/05/10 06:45:02;;;;;;;11.87;8.60;;;27.40;66.90;;;;;;6251450;28;20227;-65
2022/05/10 06:48:06;;;;;;;10.47;8.97;;;27.40;65.10;;;;;;6252618;28;20317;-65
2022/05/10 06:51:11;;;;;;;10.57;9.43;;;27.60;63.70;;;;;;6257095;28;20238;-64
2022/05/10 06:54:16;;;;;;;9.13;8.23;;;28.10;60.40;;;;;;6274070;28;20596;-64
2022/05/10 06:57:19;;;;;;;9.77;8.80;;;28.60;58.70;;;;;;6267175;28;20693;-64
2022/05/10 07:00:22;;;;;;;8.87;8.17;;;29.00;57.00;;;;;;6244554;28;20583;-65
2022/05/10 07:03:28;;;;;;;8.60;7.83;;;29.60;55.40;;;;;;6251113;28;20691;-65
2022/05/10 07:06:34;;;;;;;10.57;9.00;;;30.50;53.40;;;;;;6250831;28;20252;-65
2022/05/10 07:09:39;;;;;;;11.70;9.00;;;31.40;51.10;;;;;;6250773;28;20239;-65
2022/05/10 07:12:44;;;;;;;10.00;9.20;;;32.20;48.90;;;;;;6250961;28;20227;-65
2022/05/10 07:15:48;;;;;;;9.10;8.30;;;33.10;46.80;;;;;;6250800;28;20224;-65
2022/05/10 07:18:51;;;;;;;8.50;7.75;;;33.90;44.90;;;;;;6250755;28;20551;-64
2022/05/10 07:21:54;;;;;;;8.60;7.90;;;34.50;42.90;;;;;;6250095;28;20722;-64
2022/05/10 07:24:59;;;;;;;8.07;7.32;;;35.10;40.90;;;;;;6250780;28;20671;-66
2022/05/10 07:28:02;;;;;;;7.80;7.15;;;35.70;39.10;;;;;;6250760;28;20277;-65
2022/05/10 07:31:06;;;;;;;8.02;7.32;;;35.30;38.20;;;;;;6250281;28;20232;-65
2022/05/10 07:34:09;;;;;;;8.07;7.40;;;36.00;37.30;;;;;;6251016;28;20228;-65
2022/05/10 07:37:13;;;;;;;8.63;7.93;;;36.70;36.00;;;;;;6261102;28;20258;-66
2022/05/10 07:40:17;;;;;;;7.50;7.00;;;37.60;34.70;;;;;;6266269;28;20848;-65
2022/05/10 07:43:21;;;;;;;7.85;7.25;;;38.20;33.40;;;;;;6263338;28;20231;-66
2022/05/10 07:46:25;;;;;;;8.63;7.90;;;38.60;32.40;;;;;;6262598;28;20226;-64
2022/05/10 07:49:29;;;;;;;7.80;7.15;;;39.10;31.50;;;;;;6264337;28;20210;-65
2022/05/10 07:52:32;;;;;;;7.32;6.82;;;39.60;30.80;;;;;;6258860;28;20523;-66
2022/05/10 07:55:37;;;;;;;7.10;6.50;;;40.30;30.20;;;;;;6258690;28;20228;-64
2022/05/10 07:58:40;;;;;;;6.72;6.25;;;41.10;29.10;;;;;;6246587;28;20699;-66
2022/05/10 08:01:43;;;;;;;8.50;7.80;;;41.40;28.60;;;;;;6231978;28;20592;-66
2022/05/10 08:04:47;;;;;;;7.90;7.32;;;40.60;28.50;;;;;;6250230;28;20223;-66
2022/05/10 08:07:50;;;;;;;6.53;6.13;;;41.00;28.40;;;;;;6233604;28;20231;-65
2022/05/10 08:10:56;;;;;;;8.02;7.30;;;41.70;27.80;;;;;;6225395;28;20239;-66
2022/05/10 08:13:59;;;;;;;8.23;7.53;;;42.50;27.20;;;;;;6225529;28;20243;-66
2022/05/10 08:17:02;;;;;;;9.15;8.40;;;41.80;27.40;;;;;;6252141;28;20234;-67
2022/05/10 08:20:06;;;;;;;7.80;7.20;;;40.30;27.70;;;;;;6272619;28;20226;-67
2022/05/10 08:23:11;;;;;;;8.05;7.32;;;39.60;28.80;;;;;;6274847;28;20238;-68
2022/05/10 08:26:16;;;;;;;8.45;7.80;;;39.50;28.60;;;;;;6269449;28;20231;-67
2022/05/10 08:29:19;;;;;;;7.40;6.80;;;38.80;29.80;;;;;;6253914;28;20445;-67
2022/05/10 08:32:22;;;;;;;7.03;6.35;;;38.00;29.70;;;;;;6249547;28;20220;-65
2022/05/10 08:35:43;;;;;;;8.80;7.95;;;37.30;30.60;;;;;;6254252;28;20232;-65
2022/05/10 08:38:46;;;;;;;8.75;7.93;;;36.40;31.60;;;;;;6247676;28;20227;-65
2022/05/10 08:41:55;;;;;;;8.48;7.68;;;35.40;33.50;;;;;;6240163;28;20219;-66
2022/05/10 08:45:01;;;;;;;9.23;8.63;;;33.70;34.80;;;;;;6264364;28;20672;-65
2022/05/10 08:48:05;;;;;;;8.52;7.93;;;32.50;36.70;;;;;;6229759;28;20302;-66
2022/05/10 08:51:09;;;;;;;7.80;7.15;;;31.80;37.90;;;;;;6245062;28;20218;-65
2022/05/10 08:54:12;;;;;;;8.23;7.60;;;31.20;39.10;;;;;;6270301;28;20224;-65
2022/05/10 08:57:23;;;;;;;8.63;7.72;;;30.50;39.90;;;;;;6254045;28;20255;-65
2022/05/10 09:00:33;;;;;;;8.60;7.90;;;30.10;41.50;;;;;;6238783;28;20363;-65
2022/05/10 09:03:41;;;;;;;8.50;7.77;;;29.40;42.70;;;;;;6277357;28;20227;-65
2022/05/10 09:06:57;;;;;;;8.50;7.70;;;28.80;43.80;;;;;;6260287;28;20250;-65
2022/05/10 09:10:04;;;;;;;8.00;7.20;;;28.50;44.90;;;;;;6277592;28;20227;-65
2022/05/10 09:13:13;;;;;;;7.77;7.17;;;28.30;45.30;;;;;;6257478;28;20652;-66
2022/05/10 09:16:16;;;;;;;8.77;8.17;;;28.20;45.80;;;;;;6252857;28;20267;-66
2022/05/10 09:19:19;;;;;;;8.60;7.80;;;27.40;47.10;;;;;;6252203;28;20302;-65
2022/05/10 09:22:32;;;;;;;11.17;8.20;;;27.00;48.50;;;;;;6252350;28;20218;-66
2022/05/10 09:25:38;;;;;;;9.40;8.70;;;26.60;49.00;;;;;;6251994;28;20648;-66
2022/05/10 09:28:51;;;;;;;8.93;8.13;;;26.50;49.10;;;;;;6252160;28;20595;-66
2022/05/10 09:35:21;;;;;;;8.27;7.60;;;26.20;50.00;;;;;;6256414;28;20224;-66
2022/05/10 09:38:24;;;;;;;8.40;7.80;;;26.60;49.90;;;;;;6261243;28;20238;-65
2022/05/10 09:41:33;;;;;;;9.07;8.20;;;26.80;48.90;;;;;;6256493;28;20523;-65
2022/05/10 09:44:37;;;;;;;8.97;8.07;;;27.00;48.60;;;;;;6254549;28;20228;-65
2022/05/10 09:47:53;;;;;;;9.53;8.70;;;27.10;49.00;;;;;;6229549;28;20243;-66
2022/05/10 09:50:56;;;;;;;7.53;6.90;;;27.00;48.50;;;;;;6228275;28;20228;-66
2022/05/10 09:54:02;;;;;;;9.30;8.40;;;26.60;48.30;;;;;;6228182;28;20266;-66
2022/05/10 09:57:10;;;;;;;10.03;9.17;;;26.70;48.30;;;;;;6228214;28;20240;-65
2022/05/10 10:00:16;;;;;;;9.63;8.77;;;26.80;48.50;;;;;;6228141;28;20236;-66
2022/05/10 10:03:26;;;;;;;13.03;11.90;;;26.70;49.20;;;;;;6228598;28;20280;-65
2022/05/10 10:06:29;;;;;;;10.60;9.70;;;26.80;49.50;;;;;;6234806;28;20232;-65
2022/05/10 10:09:34;;;;;;;8.40;7.70;;;27.00;48.20;;;;;;6248035;28;20232;-65
2022/05/10 10:12:40;;;;;;;8.67;8.00;;;27.00;48.40;;;;;;6252361;28;20244;-66
2022/05/10 10:15:45;;;;;;;8.00;7.30;;;26.60;48.20;;;;;;6252318;28;20228;-65
2022/05/10 10:18:53;;;;;;;8.23;7.53;;;26.60;48.10;;;;;;6252224;28;20664;-65
2022/05/10 10:22:03;;;;;;;8.20;7.40;;;26.80;47.90;;;;;;6252530;28;20293;-65
2022/05/10 10:25:14;;;;;;;8.40;7.70;;;27.00;47.80;;;;;;6252185;28;20247;-65
2022/05/10 10:28:25;;;;;;;8.20;7.50;;;26.80;46.90;;;;;;6251763;28;20285;-66
2022/05/10 10:31:34;;;;;;;9.30;8.50;;;26.80;47.10;;;;;;6252227;28;20209;-65
2022/05/10 10:34:43;;;;;;;7.13;6.43;;;26.90;46.80;;;;;;6251978;28;20219;-65
2022/05/10 10:37:50;;;;;;;8.57;7.90;;;26.80;47.00;;;;;;6252062;28;20232;-65
2022/05/10 10:40:59;;;;;;;7.33;6.73;;;27.00;46.70;;;;;;6251799;28;20758;-65
2022/05/10 10:44:08;;;;;;;6.97;6.47;;;27.20;46.00;;;;;;6251938;28;20224;-65
2022/05/10 10:47:25;;;;;;;6.33;5.83;;;27.10;45.00;;;;;;6232299;28;20233;-65
2022/05/10 10:50:30;;;;;;;8.97;7.10;;;27.30;45.80;;;;;;6226955;28;20221;-65
2022/05/10 10:53:34;;;;;;;7.20;6.60;;;27.30;45.50;;;;;;6227183;28;20379;-65
2022/05/10 10:56:50;;;;;;;6.83;5.83;;;27.40;45.00;;;;;;6225989;28;20228;-65
2022/05/10 11:00:14;;;;;;;6.80;6.40;;;27.70;44.00;;;;;;6226720;28;20251;-65
2022/05/10 11:03:31;;;;;;;6.70;6.20;;;27.70;43.10;;;;;;6226738;28;20239;-66
2022/05/10 11:06:41;;;;;;;6.30;5.70;;;27.70;42.70;;;;;;6234783;28;20330;-65
2022/05/10 11:09:51;;;;;;;6.13;5.53;;;27.60;41.50;;;;;;6252217;28;20679;-65
2022/05/10 11:13:03;;;;;;;6.87;6.27;;;27.10;41.10;;;;;;6253796;28;20690;-65
2022/05/10 11:16:22;;;;;;;5.63;5.23;;;26.80;44.10;;;;;;6266476;28;20227;-64
2022/05/10 11:19:57;;;;;;;6.40;5.90;;;26.90;42.50;;;;;;6255820;28;20609;-67
2022/05/10 11:23:04;;;;;;;6.03;5.53;;;27.10;42.80;;;;;;6239303;28;20567;-66
2022/05/10 11:26:20;;;;;;;6.97;6.27;;;27.10;43.00;;;;;;6250375;28;20227;-65
2022/05/10 11:29:45;;;;;;;5.57;5.17;;;27.30;43.20;;;;;;6250792;28;20228;-64
2022/05/10 11:33:10;;;;;;;8.10;5.80;;;27.60;43.00;;;;;;6269227;28;20535;-64
2022/05/10 11:36:27;;;;;;;7.30;6.70;;;27.90;43.00;;;;;;6275206;28;20235;-63
2022/05/10 11:40:00;;;;;;;7.67;7.00;;;28.10;43.60;;;;;;6256713;28;20311;-65
2022/05/10 11:43:39;;;;;;;8.50;6.53;;;27.90;43.40;;;;;;6250771;28;20228;-64
2022/05/10 11:47:10;;;;;;;7.20;6.60;;;27.90;43.40;;;;;;6235013;28;20239;-65
2022/05/10 11:54:28;;;;;;;7.43;6.23;;;28.00;43.60;;;;;;6180488;28;20243;-64
2022/05/10 11:57:33;;;;;;;6.63;6.20;;;28.10;43.20;;;;;;6225775;28;20233;-64
2022/05/10 12:00:58;;;;;;;6.93;6.20;;;28.00;43.10;;;;;;6245920;28;20290;-63
2022/05/10 12:04:01;;;;;;;7.10;6.70;;;27.90;43.20;;;;;;6250672;28;20243;-63
2022/05/10 12:07:31;;;;;;;6.20;5.70;;;27.40;43.40;;;;;;6249631;28;20370;-62
2022/05/10 12:10:41;;;;;;;5.47;5.03;;;27.60;43.80;;;;;;6263825;28;20547;-65
2022/05/10 12:24:04;;;;;;;6.13;5.63;;;27.70;43.90;;;;;;6258200;28;20224;-65
2022/05/10 12:27:37;;;;;;;7.80;6.20;;;27.70;43.60;;;;;;6260435;28;20223;-65
2022/05/10 12:30:40;;;;;;;6.87;6.20;;;27.70;43.00;;;;;;6243701;28;20227;-66
2022/05/10 12:33:58;;;;;;;6.93;6.33;;;27.70;43.80;;;;;;6261532;28;20235;-65
2022/05/10 12:37:36;;;;;;;6.13;5.63;;;27.80;43.10;;;;;;6260071;28;20239;-65
2022/05/10 12:40:57;;;;;;;7.20;6.20;;;27.90;42.50;;;;;;6259388;28;20204;-65
2022/05/10 12:44:49;;;;;;;6.77;6.30;;;27.20;44.20;;;;;;6259995;28;20228;-66
2022/05/10 12:48:07;;;;;;;6.80;6.30;;;26.90;44.90;;;;;;6257747;28;20238;-66
2022/05/10 12:51:33;;;;;;;5.90;5.40;;;27.20;43.60;;;;;;6260433;28;20233;-66
2022/05/10 12:54:39;;;;;;;6.57;5.97;;;27.10;44.00;;;;;;6265171;28;20232;-65
2022/05/10 12:57:53;;;;;;;6.50;6.10;;;27.20;44.50;;;;;;6263792;28;20699;-65
2022/05/10 13:01:01;;;;;;;7.53;7.03;;;27.30;44.60;;;;;;6261115;28;20659;-66
2022/05/10 13:04:12;;;;;;;6.10;5.60;;;26.80;45.30;;;;;;6259644;28;20216;-67
2022/05/10 13:07:28;;;;;;;6.77;6.27;;;26.80;45.70;;;;;;6258582;28;20232;-66
2022/05/10 13:10:34;;;;;;;6.70;6.20;;;26.80;46.50;;;;;;6257650;28;20209;-65
2022/05/10 13:13:38;;;;;;;6.40;5.80;;;26.90;45.20;;;;;;6262852;28;20187;-65
2022/05/10 13:16:48;;;;;;;6.90;6.40;;;26.90;45.10;;;;;;6261338;28;20656;-65
2022/05/10 13:19:52;;;;;;;7.07;6.40;;;27.10;45.30;;;;;;6241440;28;20227;-65
2022/05/10 13:22:58;;;;;;;6.80;6.20;;;26.90;44.10;;;;;;6253990;28;20228;-65
2022/05/10 13:26:06;;;;;;;7.30;6.63;;;26.90;45.50;;;;;;6253368;28;20621;-63
2022/05/10 13:29:09;;;;;;;7.07;6.47;;;26.40;45.80;;;;;;6253617;28;20674;-65
2022/05/10 13:32:33;;;;;;;6.47;6.03;;;26.30;46.60;;;;;;6253752;28;20243;-65
2022/05/10 13:35:36;;;;;;;6.70;6.10;;;26.40;46.20;;;;;;6253461;28;20231;-64
2022/05/10 13:38:45;;;;;;;6.90;6.20;;;26.40;46.10;;;;;;6255426;28;20238;-64
2022/05/10 13:41:48;;;;;;;6.87;6.27;;;26.40;45.10;;;;;;6253477;28;20228;-63
2022/05/10 13:44:51;;;;;;;7.10;6.50;;;26.40;45.30;;;;;;6252624;28;20220;-63
2022/05/10 13:48:00;;;;;;;6.43;5.93;;;26.40;45.00;;;;;;6253092;28;20239;-64
2022/05/10 13:51:09;;;;;;;6.07;5.60;;;26.00;46.00;;;;;;6253079;28;20277;-65
2022/05/10 13:54:24;;;;;;;6.80;6.30;;;26.10;46.10;;;;;;6252760;28;20651;-64
2022/05/10 13:57:29;;;;;;;6.20;5.70;;;26.50;45.80;;;;;;6252911;28;20232;-63
2022/05/10 14:00:35;;;;;;;6.20;5.80;;;26.70;44.50;;;;;;6241968;28;20671;-67
2022/05/10 14:03:40;;;;;;;6.10;5.63;;;26.80;44.90;;;;;;6228273;28;20386;-65
2022/05/10 14:06:46;;;;;;;6.83;6.33;;;26.80;46.20;;;;;;6236480;28;20686;-64
2022/05/10 14:09:53;;;;;;;6.40;5.90;;;26.30;47.40;;;;;;6252509;28;20232;-66
2022/05/10 14:12:59;;;;;;;6.67;6.17;;;26.20;47.80;;;;;;6261986;28;20219;-67
2022/05/10 14:16:02;;;;;;;6.13;5.63;;;26.20;47.50;;;;;;6247177;28;20221;-65
2022/05/10 14:19:19;;;;;;;6.83;6.23;;;26.30;47.00;;;;;;6243043;28;20664;-65
2022/05/10 14:22:25;;;;;;;6.63;6.03;;;26.40;46.00;;;;;;6248493;28;20220;-65
2022/05/10 14:25:31;;;;;;;5.80;5.40;;;25.90;47.60;;;;;;6240988;28;20292;-65
2022/05/10 14:28:37;;;;;;;6.83;6.17;;;25.80;48.00;;;;;;6227305;28;20556;-64
2022/05/10 14:31:41;;;;;;;7.10;6.40;;;25.30;48.60;;;;;;6227492;28;20598;-65
2022/05/10 14:34:52;;;;;;;5.50;5.10;;;25.40;49.00;;;;;;6244226;28;20242;-68
2022/05/10 14:37:57;;;;;;;6.73;6.23;;;25.40;48.70;;;;;;6255226;28;20648;-65
2022/05/10 14:41:01;;;;;;;6.63;6.23;;;25.50;49.50;;;;;;6256149;28;20224;-66
2022/05/10 14:44:18;;;;;;;7.03;6.33;;;25.70;48.60;;;;;;6253230;28;20233;-66
2022/05/10 14:47:23;;;;;;;6.33;5.80;;;25.60;47.40;;;;;;6241808;28;20253;-66
2022/05/10 14:50:41;;;;;;;7.13;6.53;;;25.20;47.90;;;;;;6247597;28;20224;-66
2022/05/10 14:53:53;;;;;;;10.60;6.70;;;25.10;48.10;;;;;;6271876;28;20243;-65
2022/05/10 14:57:00;;;;;;;6.43;5.93;;;25.20;48.50;;;;;;6276148;28;20228;-65
2022/05/10 15:00:25;;;;;;;5.83;5.43;;;25.30;48.20;;;;;;6258926;28;20255;-65
2022/05/10 15:03:29;;;;;;;6.90;6.30;;;25.70;47.70;;;;;;6252044;28;20672;-65
2022/05/10 15:06:34;;;;;;;5.80;5.40;;;25.80;46.50;;;;;;6243817;28;20604;-65
2022/05/10 15:09:37;;;;;;;6.30;5.83;;;25.60;47.30;;;;;;6226135;28;20243;-65
2022/05/10 15:16:03;;;;;;;7.00;6.50;;;26.00;46.90;;;;;;6233971;28;20224;-64
2022/05/10 15:19:06;;;;;;;6.43;5.93;;;26.10;46.10;;;;;;6250585;28;20560;-64
2022/05/10 15:22:11;;;;;;;6.30;5.80;;;26.10;47.00;;;;;;6249929;28;20239;-65
2022/05/10 15:25:14;;;;;;;7.07;6.37;;;26.00;47.00;;;;;;6250759;28;20220;-65
2022/05/10 15:28:17;;;;;;;6.40;5.90;;;26.10;46.70;;;;;;6246557;28;20235;-65
2022/05/10 15:31:23;;;;;;;6.13;5.60;;;26.10;46.70;;;;;;6250411;28;20242;-65
2022/05/10 15:34:46;;;;;;;6.13;5.63;;;26.10;46.70;;;;;;6251043;28;20227;-63
2022/05/10 15:37:51;;;;;;;6.97;6.43;;;26.00;46.60;;;;;;6250494;28;20224;-64
2022/05/10 15:40:55;;;;;;;6.80;6.30;;;26.00;47.60;;;;;;6250648;28;20224;-64
2022/05/10 15:43:58;;;;;;;6.60;6.20;;;26.10;48.00;;;;;;6225374;28;20232;-63
2022/05/10 15:47:02;;;;;;;8.13;6.40;;;26.20;46.50;;;;;;6225974;28;20239;-63
2022/05/10 15:50:08;;;;;;;7.63;6.10;;;26.30;46.10;;;;;;6226202;28;20564;-63
2022/05/10 15:53:13;;;;;;;6.97;6.33;;;26.40;49.30;;;;;;6226171;28;20685;-65
2022/05/10 15:56:26;;;;;;;6.40;5.80;;;26.10;51.60;;;;;;6225541;28;20240;-65
2022/05/10 15:59:30;;;;;;;5.70;5.20;;;26.10;51.00;;;;;;6226454;28;20312;-63
2022/05/10 16:02:33;;;;;;;8.90;5.63;;;25.90;49.90;;;;;;6256535;28;20216;-63
2022/05/10 16:05:40;;;;;;;7.53;6.93;;;25.20;51.20;;;;;;6250398;28;20243;-64
2022/05/10 16:08:45;;;;;;;6.50;5.97;;;24.70;52.90;;;;;;6225875;28;20319;-63
2022/05/10 16:11:48;;;;;;;7.07;6.57;;;24.30;54.50;;;;;;6226284;28;20597;-63
2022/05/10 16:14:55;;;;;;;7.23;6.63;;;23.90;56.80;;;;;;6240762;28;20671;-64
2022/05/10 16:17:58;;;;;;;6.90;6.30;;;23.60;58.30;;;;;;6266921;28;20248;-63
2022/05/10 16:21:02;;;;;;;7.20;6.70;;;23.70;58.40;;;;;;6250444;28;20224;-64
2022/05/10 16:24:08;;;;;;;6.20;5.60;;;23.60;58.50;;;;;;6265450;28;20254;-63
2022/05/10 16:30:33;;;;;;;7.97;6.17;;;23.60;59.10;;;;;;6232398;28;20662;-63
2022/05/10 16:33:36;;;;;;;6.80;6.17;;;23.80;58.50;;;;;;6234864;28;20242;-64
2022/05/10 16:36:40;;;;;;;11.60;7.37;;;23.80;58.70;;;;;;6262750;28;20224;-65